WUK363 LWSK-EGGW
Flight info
| Callsign | WUK363 |
|---|---|
| Flight time | 3h 3m |
| Altitude | 34000 |
| Route | GOSTI DCT MAVAR DCT NEMEK/N0436F360 DCT MODSA DCT BABEG DCT LIRSU DCT KOZUF DCT IMPOH DCT SASKI L608 SUMUM Y6 TOSVA |
| Aircraft | A21N/M-SDE1E2E3FGIJ1J4RWXY/LB1 |
Departure
| Time | 2026-04-26 17:55 |
|---|---|
| Airport | Skopje International Airport (LWSK) |
Arrival
| Time | 2026-04-26 20:59 |
|---|---|
| Airport | London Luton Airport (EGGW) |
| Time | Latitude | Longitude | Altitude | Speed | Heading |
|---|---|---|---|---|---|
| 2026-04-26 16:51 | 41.95945 | 21.62633 | 798 ft | 0 kts | 75° |
| 2026-04-26 17:45 | 41.95945 | 21.62631 | 798 ft | 2 kts | 75° |
| 2026-04-26 17:45 | 41.95938 | 21.62598 | 798 ft | 4 kts | 73° |
| 2026-04-26 17:45 | 41.95930 | 21.62563 | 798 ft | 4 kts | 79° |
| 2026-04-26 17:45 | 41.95928 | 21.62533 | 798 ft | 4 kts | 92° |
| 2026-04-26 17:46 | 41.95934 | 21.62501 | 797 ft | 4 kts | 133° |
| 2026-04-26 17:46 | 41.95956 | 21.62485 | 796 ft | 4 kts | 167° |
| 2026-04-26 17:46 | 41.95971 | 21.62480 | 797 ft | 1 kts | 165° |
| 2026-04-26 17:51 | 41.95957 | 21.62485 | 796 ft | 4 kts | 165° |
| 2026-04-26 17:51 | 41.95934 | 21.62493 | 796 ft | 5 kts | 166° |
| 2026-04-26 17:51 | 41.95875 | 21.62514 | 796 ft | 7 kts | 165° |
| 2026-04-26 17:51 | 41.95841 | 21.62526 | 795 ft | 8 kts | 165° |
| 2026-04-26 17:52 | 41.95784 | 21.62546 | 793 ft | 9 kts | 165° |
| 2026-04-26 17:52 | 41.95722 | 21.62568 | 792 ft | 10 kts | 165° |
| 2026-04-26 17:52 | 41.95652 | 21.62593 | 791 ft | 11 kts | 165° |
| 2026-04-26 17:52 | 41.95575 | 21.62620 | 791 ft | 12 kts | 166° |
| 2026-04-26 17:53 | 41.95490 | 21.62649 | 790 ft | 13 kts | 165° |
| 2026-04-26 17:53 | 41.95399 | 21.62681 | 788 ft | 14 kts | 165° |
| 2026-04-26 17:53 | 41.95305 | 21.62714 | 786 ft | 13 kts | 166° |
| 2026-04-26 17:54 | 41.95166 | 21.62743 | 784 ft | 10 kts | 211° |
| 2026-04-26 17:54 | 41.95133 | 21.62661 | 784 ft | 11 kts | 256° |
| 2026-04-26 17:54 | 41.95114 | 21.62558 | 785 ft | 9 kts | 255° |
| 2026-04-26 17:54 | 41.95116 | 21.62509 | 786 ft | 5 kts | 319° |
| 2026-04-26 17:55 | 41.95224 | 21.62469 | 787 ft | 44 kts | 346° |
| 2026-04-26 17:55 | 41.95759 | 21.62282 | 791 ft | 111 kts | 344° |
| 2026-04-26 17:55 | 41.96687 | 21.61960 | 874 ft | 154 kts | 346° |
| 2026-04-26 17:55 | 41.97723 | 21.61592 | 1479 ft | 155 kts | 349° |
| 2026-04-26 17:56 | 41.98778 | 21.61266 | 2115 ft | 159 kts | 348° |
| 2026-04-26 17:56 | 42.01047 | 21.60626 | 3247 ft | 164 kts | 6° |
| 2026-04-26 17:57 | 42.02111 | 21.63006 | 4195 ft | 191 kts | 103° |
| 2026-04-26 17:57 | 42.01344 | 21.64581 | 4499 ft | 216 kts | 134° |
| 2026-04-26 17:57 | 42.00005 | 21.65706 | 4880 ft | 236 kts | 153° |
| 2026-04-26 17:57 | 41.98431 | 21.66381 | 5411 ft | 248 kts | 169° |
| 2026-04-26 17:58 | 41.93820 | 21.63153 | 7064 ft | 269 kts | 242° |
| 2026-04-26 17:59 | 41.92376 | 21.58399 | 8310 ft | 282 kts | 255° |
| 2026-04-26 17:59 | 41.91792 | 21.55876 | 9067 ft | 283 kts | 256° |
| 2026-04-26 17:59 | 41.91203 | 21.53343 | 9884 ft | 284 kts | 255° |
| 2026-04-26 17:59 | 41.90604 | 21.50773 | 10387 ft | 296 kts | 255° |
| 2026-04-26 18:00 | 41.89970 | 21.48059 | 10663 ft | 314 kts | 255° |
| 2026-04-26 18:00 | 41.89293 | 21.45172 | 10912 ft | 333 kts | 254° |
| 2026-04-26 18:00 | 41.88583 | 21.42148 | 11317 ft | 345 kts | 254° |
| 2026-04-26 18:00 | 41.87852 | 21.39058 | 11977 ft | 349 kts | 255° |
| 2026-04-26 18:01 | 41.87114 | 21.35934 | 12637 ft | 353 kts | 254° |
| 2026-04-26 18:01 | 41.86367 | 21.32775 | 13294 ft | 358 kts | 253° |
| 2026-04-26 18:01 | 41.85608 | 21.29567 | 13925 ft | 362 kts | 254° |
| 2026-04-26 18:01 | 41.84840 | 21.26338 | 14561 ft | 365 kts | 254° |
| 2026-04-26 18:02 | 41.84077 | 21.23130 | 15235 ft | 366 kts | 254° |
| 2026-04-26 18:02 | 41.83553 | 21.20926 | 15645 ft | 368 kts | 254° |
| 2026-04-26 18:02 | 41.82517 | 21.16574 | 16475 ft | 372 kts | 253° |
| 2026-04-26 18:02 | 41.81725 | 21.13256 | 17109 ft | 374 kts | 253° |
| 2026-04-26 18:03 | 41.80931 | 21.09936 | 17731 ft | 375 kts | 253° |
| 2026-04-26 18:03 | 41.80121 | 21.06598 | 18316 ft | 378 kts | 253° |
| 2026-04-26 18:03 | 41.79304 | 21.03234 | 18843 ft | 381 kts | 253° |
| 2026-04-26 18:03 | 41.78480 | 20.99850 | 19368 ft | 383 kts | 253° |
| 2026-04-26 18:04 | 41.77651 | 20.96443 | 19899 ft | 386 kts | 253° |
| 2026-04-26 18:04 | 41.76817 | 20.93020 | 20423 ft | 388 kts | 253° |
| 2026-04-26 18:04 | 41.75974 | 20.89564 | 20939 ft | 391 kts | 253° |
| 2026-04-26 18:05 | 41.74272 | 20.82605 | 21943 ft | 395 kts | 253° |
| 2026-04-26 18:05 | 41.73411 | 20.79094 | 22448 ft | 397 kts | 253° |
| 2026-04-26 18:05 | 41.72548 | 20.75580 | 22963 ft | 399 kts | 253° |
| 2026-04-26 18:05 | 41.71677 | 20.72040 | 23485 ft | 400 kts | 253° |
| 2026-04-26 18:06 | 41.70805 | 20.68506 | 23955 ft | 401 kts | 254° |
| 2026-04-26 18:06 | 41.69932 | 20.64961 | 24348 ft | 402 kts | 254° |
| 2026-04-26 18:06 | 41.69262 | 20.61374 | 24685 ft | 403 kts | 263° |
| 2026-04-26 18:06 | 41.69097 | 20.57635 | 25026 ft | 404 kts | 274° |
| 2026-04-26 18:07 | 41.69506 | 20.53912 | 25356 ft | 406 kts | 285° |
| 2026-04-26 18:07 | 41.70480 | 20.50369 | 25687 ft | 408 kts | 296° |
| 2026-04-26 18:07 | 41.71983 | 20.47127 | 26019 ft | 412 kts | 306° |
| 2026-04-26 18:07 | 41.73235 | 20.45217 | 26232 ft | 415 kts | 313° |
| 2026-04-26 18:08 | 41.76096 | 20.41685 | 26676 ft | 420 kts | 316° |
| 2026-04-26 18:08 | 41.78282 | 20.39058 | 27019 ft | 422 kts | 316° |
| 2026-04-26 18:08 | 41.80468 | 20.36414 | 27333 ft | 425 kts | 316° |
| 2026-04-26 18:08 | 41.82667 | 20.33730 | 27641 ft | 428 kts | 316° |
| 2026-04-26 18:09 | 41.84867 | 20.31021 | 27954 ft | 430 kts | 316° |
| 2026-04-26 18:09 | 41.87075 | 20.28305 | 28273 ft | 432 kts | 316° |
| 2026-04-26 18:09 | 41.89269 | 20.25603 | 28584 ft | 434 kts | 316° |
| 2026-04-26 18:09 | 41.91501 | 20.22847 | 28886 ft | 437 kts | 316° |
| 2026-04-26 18:10 | 41.93743 | 20.20074 | 29162 ft | 439 kts | 316° |
| 2026-04-26 18:10 | 41.95995 | 20.17292 | 29467 ft | 441 kts | 316° |
| 2026-04-26 18:10 | 41.98254 | 20.14502 | 29850 ft | 440 kts | 316° |
| 2026-04-26 18:10 | 42.00504 | 20.11717 | 30220 ft | 440 kts | 316° |
| 2026-04-26 18:11 | 42.02761 | 20.08931 | 30505 ft | 440 kts | 316° |
| 2026-04-26 18:11 | 42.05021 | 20.06153 | 30795 ft | 440 kts | 316° |
| 2026-04-26 18:11 | 42.07274 | 20.03368 | 31058 ft | 440 kts | 316° |
| 2026-04-26 18:11 | 42.09521 | 20.00581 | 31346 ft | 439 kts | 316° |
| 2026-04-26 18:12 | 42.11764 | 19.97786 | 31631 ft | 439 kts | 316° |
| 2026-04-26 18:12 | 42.13998 | 19.94996 | 31903 ft | 438 kts | 316° |
| 2026-04-26 18:12 | 42.16246 | 19.92209 | 32169 ft | 438 kts | 316° |
| 2026-04-26 18:12 | 42.18479 | 19.89423 | 32444 ft | 437 kts | 316° |
| 2026-04-26 18:13 | 42.20700 | 19.86628 | 32708 ft | 436 kts | 316° |
| 2026-04-26 18:13 | 42.22920 | 19.83834 | 32956 ft | 436 kts | 316° |
| 2026-04-26 18:13 | 42.25139 | 19.81052 | 33195 ft | 436 kts | 316° |
| 2026-04-26 18:13 | 42.26610 | 19.79207 | 33341 ft | 435 kts | 316° |
| 2026-04-26 18:14 | 42.29581 | 19.75474 | 33617 ft | 436 kts | 316° |
| 2026-04-26 18:14 | 42.31798 | 19.72688 | 33822 ft | 435 kts | 316° |
| 2026-04-26 18:14 | 42.33993 | 19.69935 | 34028 ft | 435 kts | 316° |
| 2026-04-26 18:15 | 42.38428 | 19.64351 | 34123 ft | 436 kts | 316° |
| 2026-04-26 18:15 | 42.42870 | 19.58762 | 34096 ft | 436 kts | 316° |
| 2026-04-26 18:16 | 42.47320 | 19.53149 | 34092 ft | 436 kts | 316° |
| 2026-04-26 18:16 | 42.53949 | 19.44729 | 34087 ft | 435 kts | 316° |
| 2026-04-26 18:17 | 42.58349 | 19.39137 | 34091 ft | 435 kts | 316° |
| 2026-04-26 18:17 | 42.62758 | 19.33527 | 34091 ft | 432 kts | 316° |
| 2026-04-26 18:18 | 42.67148 | 19.27942 | 34103 ft | 432 kts | 316° |
| 2026-04-26 18:18 | 42.71537 | 19.22320 | 34101 ft | 433 kts | 316° |
| 2026-04-26 18:19 | 42.75927 | 19.16690 | 34112 ft | 435 kts | 316° |
| 2026-04-26 18:19 | 42.80324 | 19.11044 | 34119 ft | 433 kts | 316° |
| 2026-04-26 18:20 | 42.84696 | 19.05436 | 34111 ft | 433 kts | 316° |
| 2026-04-26 18:20 | 42.88333 | 19.00757 | 34120 ft | 433 kts | 316° |
| 2026-04-26 18:21 | 42.93461 | 18.94179 | 34117 ft | 434 kts | 316° |
| 2026-04-26 18:21 | 42.97862 | 18.88541 | 34127 ft | 431 kts | 315° |
| 2026-04-26 18:22 | 43.02205 | 18.82918 | 34118 ft | 431 kts | 315° |
| 2026-04-26 18:22 | 43.06541 | 18.77277 | 34135 ft | 433 kts | 315° |
| 2026-04-26 18:23 | 43.10907 | 18.71601 | 34132 ft | 432 kts | 315° |
| 2026-04-26 18:23 | 43.15255 | 18.65936 | 34129 ft | 431 kts | 315° |
| 2026-04-26 18:24 | 43.19594 | 18.60263 | 34131 ft | 432 kts | 315° |
| 2026-04-26 18:24 | 43.23948 | 18.54547 | 34132 ft | 434 kts | 315° |
| 2026-04-26 18:25 | 43.28307 | 18.48821 | 34140 ft | 433 kts | 315° |
| 2026-04-26 18:25 | 43.32660 | 18.43114 | 34133 ft | 432 kts | 315° |
| 2026-04-26 18:26 | 43.37013 | 18.37378 | 34137 ft | 434 kts | 315° |
| 2026-04-26 18:26 | 43.41357 | 18.31620 | 34136 ft | 433 kts | 315° |
| 2026-04-26 18:27 | 43.45671 | 18.25911 | 34133 ft | 434 kts | 315° |
| 2026-04-26 18:27 | 43.50010 | 18.20158 | 34130 ft | 432 kts | 315° |
| 2026-04-26 18:28 | 43.54352 | 18.14401 | 34134 ft | 433 kts | 315° |
| 2026-04-26 18:28 | 43.58702 | 18.08609 | 34133 ft | 434 kts | 315° |
| 2026-04-26 18:29 | 43.63036 | 18.02815 | 34137 ft | 434 kts | 315° |
| 2026-04-26 18:29 | 43.67374 | 17.97016 | 34142 ft | 434 kts | 315° |
| 2026-04-26 18:30 | 43.71713 | 17.91206 | 34140 ft | 434 kts | 315° |
| 2026-04-26 18:30 | 43.76039 | 17.85395 | 34149 ft | 434 kts | 315° |
| 2026-04-26 18:31 | 43.80336 | 17.79609 | 34148 ft | 434 kts | 315° |
| 2026-04-26 18:31 | 43.84659 | 17.73781 | 34153 ft | 433 kts | 315° |
| 2026-04-26 18:32 | 43.88979 | 17.67942 | 34156 ft | 433 kts | 315° |
| 2026-04-26 18:32 | 43.93288 | 17.62100 | 34163 ft | 433 kts | 315° |
| 2026-04-26 18:33 | 43.97593 | 17.56258 | 34165 ft | 432 kts | 315° |
| 2026-04-26 18:33 | 44.01887 | 17.50420 | 34165 ft | 432 kts | 315° |
| 2026-04-26 18:34 | 44.06178 | 17.44570 | 34170 ft | 432 kts | 315° |
| 2026-04-26 18:34 | 44.10433 | 17.38743 | 34169 ft | 432 kts | 315° |
| 2026-04-26 18:35 | 44.14719 | 17.32881 | 34174 ft | 432 kts | 315° |
| 2026-04-26 18:35 | 44.18995 | 17.27021 | 34177 ft | 430 kts | 315° |
| 2026-04-26 18:36 | 44.23253 | 17.21142 | 34174 ft | 430 kts | 314° |
| 2026-04-26 18:36 | 44.27511 | 17.15265 | 34175 ft | 430 kts | 315° |
| 2026-04-26 18:37 | 44.31772 | 17.09387 | 34170 ft | 431 kts | 314° |
| 2026-04-26 18:37 | 44.36034 | 17.03497 | 34167 ft | 430 kts | 314° |
| 2026-04-26 18:38 | 44.40277 | 16.97616 | 34165 ft | 429 kts | 314° |
| 2026-04-26 18:38 | 44.44489 | 16.91769 | 34164 ft | 429 kts | 314° |
| 2026-04-26 18:39 | 44.48722 | 16.85875 | 34163 ft | 429 kts | 314° |
| 2026-04-26 18:39 | 44.52943 | 16.79954 | 34169 ft | 429 kts | 314° |
| 2026-04-26 18:40 | 44.57173 | 16.74054 | 34158 ft | 429 kts | 314° |
| 2026-04-26 18:40 | 44.61395 | 16.68140 | 34159 ft | 429 kts | 314° |
| 2026-04-26 18:41 | 44.64899 | 16.63219 | 34160 ft | 429 kts | 314° |
| 2026-04-26 18:41 | 44.69115 | 16.57283 | 34160 ft | 428 kts | 314° |
| 2026-04-26 18:42 | 44.73321 | 16.51349 | 34163 ft | 428 kts | 314° |
| 2026-04-26 18:42 | 44.77513 | 16.45420 | 34169 ft | 426 kts | 314° |
| 2026-04-26 18:43 | 44.81685 | 16.39506 | 34163 ft | 425 kts | 314° |
| 2026-04-26 18:43 | 44.85853 | 16.33588 | 34160 ft | 425 kts | 314° |
| 2026-04-26 18:44 | 44.90021 | 16.27660 | 34160 ft | 425 kts | 314° |
| 2026-04-26 18:44 | 44.94178 | 16.21721 | 34154 ft | 425 kts | 314° |
| 2026-04-26 18:45 | 44.98308 | 16.15801 | 34161 ft | 425 kts | 313° |
| 2026-04-26 18:45 | 45.02464 | 16.09855 | 34179 ft | 425 kts | 314° |
| 2026-04-26 18:46 | 45.06622 | 16.03899 | 34168 ft | 425 kts | 313° |
| 2026-04-26 18:46 | 45.10763 | 15.97944 | 34166 ft | 425 kts | 313° |
| 2026-04-26 18:47 | 45.14904 | 15.91966 | 34168 ft | 425 kts | 313° |
| 2026-04-26 18:47 | 45.19047 | 15.85981 | 34165 ft | 425 kts | 313° |
| 2026-04-26 18:48 | 45.23186 | 15.79975 | 34170 ft | 425 kts | 313° |
| 2026-04-26 18:48 | 45.27328 | 15.73965 | 34164 ft | 425 kts | 313° |
| 2026-04-26 18:49 | 45.31456 | 15.67949 | 34166 ft | 425 kts | 313° |
| 2026-04-26 18:49 | 45.35586 | 15.61940 | 34167 ft | 425 kts | 313° |
| 2026-04-26 18:50 | 45.39705 | 15.55916 | 34169 ft | 424 kts | 313° |
| 2026-04-26 18:50 | 45.43793 | 15.49934 | 34168 ft | 424 kts | 312° |
| 2026-04-26 18:51 | 45.47897 | 15.43905 | 34176 ft | 424 kts | 313° |
| 2026-04-26 18:51 | 45.51996 | 15.37860 | 34180 ft | 424 kts | 312° |
| 2026-04-26 18:52 | 45.56092 | 15.31828 | 34168 ft | 423 kts | 312° |
| 2026-04-26 18:52 | 45.60257 | 15.25899 | 34168 ft | 423 kts | 314° |
| 2026-04-26 18:53 | 45.64454 | 15.20008 | 34169 ft | 423 kts | 314° |
| 2026-04-26 18:53 | 45.68646 | 15.14110 | 34179 ft | 423 kts | 314° |
| 2026-04-26 18:54 | 45.72829 | 15.08210 | 34176 ft | 422 kts | 314° |
| 2026-04-26 18:54 | 45.77008 | 15.02301 | 34173 ft | 422 kts | 314° |
| 2026-04-26 18:55 | 45.81188 | 14.96382 | 34178 ft | 422 kts | 314° |
| 2026-04-26 18:55 | 45.85336 | 14.90494 | 34172 ft | 422 kts | 314° |
| 2026-04-26 18:56 | 45.89509 | 14.84550 | 34177 ft | 422 kts | 314° |
| 2026-04-26 18:56 | 45.93674 | 14.78591 | 34171 ft | 422 kts | 314° |
| 2026-04-26 18:57 | 45.97138 | 14.73651 | 34171 ft | 421 kts | 314° |
| 2026-04-26 18:57 | 46.01975 | 14.66702 | 34162 ft | 421 kts | 313° |
| 2026-04-26 18:58 | 46.06124 | 14.60758 | 34158 ft | 421 kts | 313° |
| 2026-04-26 18:58 | 46.10263 | 14.54798 | 34149 ft | 420 kts | 313° |
| 2026-04-26 18:59 | 46.14378 | 14.48878 | 34144 ft | 420 kts | 313° |
| 2026-04-26 18:59 | 46.18511 | 14.42909 | 34147 ft | 418 kts | 313° |
| 2026-04-26 19:00 | 46.22621 | 14.36955 | 34144 ft | 418 kts | 313° |
| 2026-04-26 19:00 | 46.26729 | 14.30986 | 34139 ft | 419 kts | 313° |
| 2026-04-26 19:01 | 46.30836 | 14.25013 | 34157 ft | 418 kts | 313° |
| 2026-04-26 19:01 | 46.34927 | 14.19046 | 34137 ft | 418 kts | 313° |
| 2026-04-26 19:02 | 46.39002 | 14.13087 | 34124 ft | 421 kts | 313° |
| 2026-04-26 19:02 | 46.42463 | 14.08016 | 34145 ft | 422 kts | 313° |
| 2026-04-26 19:03 | 46.47262 | 14.00973 | 34135 ft | 422 kts | 313° |
| 2026-04-26 19:03 | 46.51386 | 13.94893 | 34118 ft | 422 kts | 313° |
| 2026-04-26 19:04 | 46.55510 | 13.88812 | 34138 ft | 422 kts | 313° |
| 2026-04-26 19:04 | 46.59624 | 13.82732 | 34129 ft | 422 kts | 312° |
| 2026-04-26 19:05 | 46.65777 | 13.73593 | 34133 ft | 421 kts | 312° |
| 2026-04-26 19:06 | 46.69883 | 13.67497 | 34132 ft | 421 kts | 312° |
| 2026-04-26 19:06 | 46.73976 | 13.61376 | 34132 ft | 421 kts | 312° |
| 2026-04-26 19:07 | 46.78076 | 13.55266 | 34131 ft | 421 kts | 312° |
| 2026-04-26 19:07 | 46.82169 | 13.49140 | 34137 ft | 420 kts | 311° |
| 2026-04-26 19:08 | 46.86189 | 13.43026 | 34151 ft | 420 kts | 311° |
| 2026-04-26 19:08 | 46.90256 | 13.36896 | 34152 ft | 420 kts | 312° |
| 2026-04-26 19:09 | 46.94350 | 13.30795 | 34161 ft | 420 kts | 311° |
| 2026-04-26 19:09 | 46.98422 | 13.24648 | 34163 ft | 420 kts | 311° |
| 2026-04-26 19:10 | 47.02477 | 13.18496 | 34173 ft | 420 kts | 311° |
| 2026-04-26 19:10 | 47.06536 | 13.12346 | 34186 ft | 418 kts | 311° |
| 2026-04-26 19:11 | 47.10566 | 13.06219 | 34182 ft | 417 kts | 311° |
| 2026-04-26 19:11 | 47.14555 | 13.00134 | 34193 ft | 417 kts | 310° |
| 2026-04-26 19:12 | 47.18576 | 12.93978 | 34187 ft | 417 kts | 310° |
| 2026-04-26 19:12 | 47.22598 | 12.87808 | 34192 ft | 419 kts | 311° |
| 2026-04-26 19:13 | 47.26639 | 12.81601 | 34198 ft | 420 kts | 311° |
| 2026-04-26 19:13 | 47.30678 | 12.75382 | 34206 ft | 420 kts | 310° |
| 2026-04-26 19:14 | 47.34699 | 12.69176 | 34198 ft | 418 kts | 310° |
| 2026-04-26 19:14 | 47.38716 | 12.62957 | 34199 ft | 418 kts | 310° |
| 2026-04-26 19:15 | 47.42728 | 12.56725 | 34208 ft | 418 kts | 310° |
| 2026-04-26 19:15 | 47.46742 | 12.50494 | 34194 ft | 418 kts | 310° |
| 2026-04-26 19:16 | 47.50752 | 12.44240 | 34198 ft | 419 kts | 310° |
| 2026-04-26 19:16 | 47.54763 | 12.37971 | 34199 ft | 419 kts | 310° |
| 2026-04-26 19:17 | 47.58769 | 12.31708 | 34207 ft | 418 kts | 311° |
| 2026-04-26 19:17 | 47.62727 | 12.25467 | 34215 ft | 418 kts | 310° |
| 2026-04-26 19:18 | 47.66156 | 12.18562 | 34207 ft | 415 kts | 300° |
| 2026-04-26 19:18 | 47.69193 | 12.11277 | 34199 ft | 415 kts | 300° |
| 2026-04-26 19:19 | 47.72233 | 12.03988 | 34194 ft | 416 kts | 300° |
| 2026-04-26 19:19 | 47.75276 | 11.96692 | 34209 ft | 416 kts | 300° |
| 2026-04-26 19:20 | 47.78319 | 11.89361 | 34204 ft | 416 kts | 300° |
| 2026-04-26 19:20 | 47.81368 | 11.82022 | 34220 ft | 418 kts | 300° |
| 2026-04-26 19:21 | 47.84423 | 11.74653 | 34221 ft | 419 kts | 300° |
| 2026-04-26 19:21 | 47.87477 | 11.67250 | 34216 ft | 419 kts | 300° |
| 2026-04-26 19:22 | 47.90511 | 11.59887 | 34222 ft | 419 kts | 300° |
| 2026-04-26 19:22 | 47.93555 | 11.52472 | 34227 ft | 419 kts | 300° |
| 2026-04-26 19:23 | 47.96591 | 11.45047 | 34227 ft | 419 kts | 300° |
| 2026-04-26 19:23 | 47.99632 | 11.37592 | 34230 ft | 420 kts | 300° |
| 2026-04-26 19:24 | 48.02664 | 11.30147 | 34229 ft | 420 kts | 300° |
| 2026-04-26 19:24 | 48.07179 | 11.19018 | 34240 ft | 419 kts | 300° |
| 2026-04-26 19:25 | 48.09195 | 11.14029 | 34236 ft | 419 kts | 300° |
| 2026-04-26 19:25 | 48.13218 | 11.04075 | 34240 ft | 420 kts | 300° |
| 2026-04-26 19:26 | 48.16236 | 10.96567 | 34234 ft | 421 kts | 300° |
| 2026-04-26 19:26 | 48.19252 | 10.89045 | 34229 ft | 421 kts | 300° |
| 2026-04-26 19:27 | 48.21759 | 10.82779 | 34230 ft | 421 kts | 300° |
| 2026-04-26 19:27 | 48.24761 | 10.75249 | 34221 ft | 421 kts | 300° |
| 2026-04-26 19:28 | 48.27768 | 10.67691 | 34239 ft | 422 kts | 300° |
| 2026-04-26 19:28 | 48.30770 | 10.60118 | 34244 ft | 422 kts | 300° |
| 2026-04-26 19:29 | 48.33748 | 10.52590 | 34246 ft | 422 kts | 300° |
| 2026-04-26 19:29 | 48.36743 | 10.45001 | 34261 ft | 422 kts | 300° |
| 2026-04-26 19:30 | 48.39732 | 10.37399 | 34252 ft | 422 kts | 300° |
| 2026-04-26 19:30 | 48.42211 | 10.31078 | 34246 ft | 422 kts | 300° |
| 2026-04-26 19:31 | 48.45682 | 10.22173 | 34233 ft | 422 kts | 300° |
| 2026-04-26 19:31 | 48.48662 | 10.14542 | 34255 ft | 422 kts | 300° |
| 2026-04-26 19:32 | 48.51637 | 10.06907 | 34247 ft | 422 kts | 300° |
| 2026-04-26 19:32 | 48.54598 | 9.99267 | 34241 ft | 422 kts | 300° |
| 2026-04-26 19:33 | 48.57529 | 9.91672 | 34239 ft | 421 kts | 301° |
| 2026-04-26 19:33 | 48.60475 | 9.84035 | 34242 ft | 421 kts | 300° |
| 2026-04-26 19:34 | 48.63418 | 9.76380 | 34241 ft | 420 kts | 300° |
| 2026-04-26 19:34 | 48.66345 | 9.68733 | 34237 ft | 420 kts | 300° |
| 2026-04-26 19:35 | 48.69689 | 9.61477 | 34246 ft | 419 kts | 307° |
| 2026-04-26 19:35 | 48.73207 | 9.54479 | 34237 ft | 417 kts | 308° |
| 2026-04-26 19:36 | 48.76112 | 9.48657 | 34235 ft | 416 kts | 307° |
| 2026-04-26 19:36 | 48.80166 | 9.40493 | 34238 ft | 416 kts | 307° |
| 2026-04-26 19:37 | 48.83646 | 9.33462 | 34234 ft | 416 kts | 307° |
| 2026-04-26 19:37 | 48.87118 | 9.26420 | 34241 ft | 416 kts | 307° |
| 2026-04-26 19:38 | 48.90584 | 9.19381 | 34235 ft | 415 kts | 308° |
| 2026-04-26 19:38 | 48.94039 | 9.12356 | 34241 ft | 415 kts | 308° |
| 2026-04-26 19:39 | 48.97490 | 9.05315 | 34245 ft | 414 kts | 308° |
| 2026-04-26 19:39 | 49.00929 | 8.98269 | 34244 ft | 414 kts | 308° |
| 2026-04-26 19:40 | 49.04366 | 8.91219 | 34248 ft | 414 kts | 308° |
| 2026-04-26 19:40 | 49.07797 | 8.84161 | 34247 ft | 414 kts | 308° |
| 2026-04-26 19:41 | 49.11189 | 8.77142 | 34241 ft | 412 kts | 308° |
| 2026-04-26 19:41 | 49.14041 | 8.71247 | 34244 ft | 412 kts | 308° |
| 2026-04-26 19:42 | 49.18002 | 8.63043 | 34248 ft | 412 kts | 308° |
| 2026-04-26 19:42 | 49.21401 | 8.55973 | 34260 ft | 412 kts | 308° |
| 2026-04-26 19:43 | 49.24781 | 8.48893 | 34261 ft | 412 kts | 307° |
| 2026-04-26 19:43 | 49.28131 | 8.41770 | 34249 ft | 412 kts | 307° |
| 2026-04-26 19:44 | 49.31519 | 8.34684 | 34250 ft | 412 kts | 308° |
| 2026-04-26 19:44 | 49.34903 | 8.27663 | 34250 ft | 412 kts | 308° |
| 2026-04-26 19:45 | 49.38291 | 8.20573 | 34254 ft | 412 kts | 308° |
| 2026-04-26 19:45 | 49.41662 | 8.13458 | 34249 ft | 412 kts | 307° |
| 2026-04-26 19:46 | 49.45022 | 8.06324 | 34255 ft | 412 kts | 307° |
| 2026-04-26 19:46 | 49.48381 | 7.99204 | 34257 ft | 411 kts | 307° |
| 2026-04-26 19:47 | 49.51168 | 7.93273 | 34252 ft | 411 kts | 307° |
| 2026-04-26 19:47 | 49.55066 | 7.84935 | 34250 ft | 411 kts | 307° |
| 2026-04-26 19:48 | 49.58401 | 7.77797 | 34250 ft | 410 kts | 307° |
| 2026-04-26 19:48 | 49.61734 | 7.70639 | 34252 ft | 411 kts | 307° |
| 2026-04-26 19:49 | 49.65059 | 7.63483 | 34248 ft | 410 kts | 307° |
| 2026-04-26 19:49 | 49.68368 | 7.56338 | 34254 ft | 409 kts | 307° |
| 2026-04-26 19:50 | 49.71670 | 7.49183 | 34268 ft | 409 kts | 307° |
| 2026-04-26 19:50 | 49.74970 | 7.42021 | 34275 ft | 408 kts | 307° |
| 2026-04-26 19:51 | 49.78257 | 7.34873 | 34272 ft | 407 kts | 307° |
| 2026-04-26 19:51 | 49.81499 | 7.27804 | 34269 ft | 400 kts | 307° |
| 2026-04-26 19:52 | 49.84730 | 7.20734 | 34276 ft | 407 kts | 306° |
| 2026-04-26 19:52 | 49.87993 | 7.13568 | 34275 ft | 407 kts | 306° |
| 2026-04-26 19:53 | 49.91257 | 7.06388 | 34273 ft | 407 kts | 306° |
| 2026-04-26 19:53 | 49.94513 | 6.99209 | 34284 ft | 407 kts | 306° |
| 2026-04-26 19:54 | 49.97748 | 6.92058 | 34251 ft | 400 kts | 306° |
| 2026-04-26 19:54 | 50.00924 | 6.85016 | 34258 ft | 404 kts | 306° |
| 2026-04-26 19:55 | 50.04181 | 6.77775 | 34250 ft | 407 kts | 306° |
| 2026-04-26 19:55 | 50.07405 | 6.70593 | 34249 ft | 407 kts | 306° |
| 2026-04-26 19:56 | 50.10647 | 6.63345 | 34252 ft | 407 kts | 306° |
| 2026-04-26 19:56 | 50.13874 | 6.56082 | 34260 ft | 407 kts | 306° |
| 2026-04-26 19:57 | 50.17074 | 6.48894 | 34260 ft | 398 kts | 306° |
| 2026-04-26 19:57 | 50.20237 | 6.41746 | 34273 ft | 407 kts | 305° |
| 2026-04-26 19:58 | 50.23439 | 6.34450 | 34279 ft | 407 kts | 305° |
| 2026-04-26 19:58 | 50.26637 | 6.27139 | 34284 ft | 407 kts | 305° |
| 2026-04-26 19:59 | 50.29822 | 6.19836 | 34290 ft | 406 kts | 305° |
| 2026-04-26 19:59 | 50.32981 | 6.12548 | 34288 ft | 400 kts | 305° |
| 2026-04-26 20:00 | 50.36098 | 6.05363 | 34306 ft | 403 kts | 305° |
| 2026-04-26 20:00 | 50.39261 | 5.98054 | 34299 ft | 407 kts | 304° |
| 2026-04-26 20:01 | 50.42447 | 5.90694 | 34305 ft | 408 kts | 304° |
| 2026-04-26 20:01 | 50.45616 | 5.83308 | 34305 ft | 408 kts | 304° |
| 2026-04-26 20:02 | 50.48786 | 5.75916 | 34300 ft | 408 kts | 304° |
| 2026-04-26 20:02 | 50.51425 | 5.69759 | 34316 ft | 408 kts | 304° |
| 2026-04-26 20:03 | 50.55080 | 5.61143 | 34307 ft | 407 kts | 304° |
| 2026-04-26 20:03 | 50.58182 | 5.53806 | 34299 ft | 402 kts | 304° |
| 2026-04-26 20:04 | 50.61311 | 5.46413 | 34308 ft | 408 kts | 304° |
| 2026-04-26 20:04 | 50.64466 | 5.38948 | 34292 ft | 409 kts | 304° |
| 2026-04-26 20:05 | 50.67618 | 5.31473 | 34292 ft | 409 kts | 304° |
| 2026-04-26 20:05 | 50.70769 | 5.23994 | 34293 ft | 409 kts | 304° |
| 2026-04-26 20:06 | 50.73894 | 5.16558 | 34298 ft | 409 kts | 303° |
| 2026-04-26 20:06 | 50.77029 | 5.09069 | 34313 ft | 409 kts | 303° |
| 2026-04-26 20:07 | 50.80128 | 5.01631 | 34300 ft | 400 kts | 303° |
| 2026-04-26 20:07 | 50.83221 | 4.94191 | 34310 ft | 409 kts | 303° |
| 2026-04-26 20:08 | 50.86355 | 4.86650 | 34302 ft | 410 kts | 303° |
| 2026-04-26 20:08 | 50.89476 | 4.79086 | 34305 ft | 410 kts | 303° |
| 2026-04-26 20:09 | 50.92598 | 4.71524 | 34310 ft | 410 kts | 303° |
| 2026-04-26 20:09 | 50.95721 | 4.63966 | 34318 ft | 409 kts | 302° |
| 2026-04-26 20:10 | 50.98823 | 4.56422 | 34318 ft | 405 kts | 302° |
| 2026-04-26 20:10 | 51.01869 | 4.48965 | 34319 ft | 405 kts | 302° |
| 2026-04-26 20:11 | 51.04953 | 4.41392 | 34319 ft | 409 kts | 302° |
| 2026-04-26 20:12 | 51.09559 | 4.30027 | 34319 ft | 409 kts | 302° |
| 2026-04-26 20:12 | 51.12641 | 4.22400 | 34316 ft | 409 kts | 302° |
| 2026-04-26 20:13 | 51.15716 | 4.14779 | 34314 ft | 409 kts | 302° |
| 2026-04-26 20:13 | 51.18784 | 4.07131 | 34310 ft | 409 kts | 302° |
| 2026-04-26 20:14 | 51.21851 | 3.99512 | 34306 ft | 405 kts | 302° |
| 2026-04-26 20:14 | 51.24341 | 3.93255 | 34306 ft | 404 kts | 301° |
| 2026-04-26 20:15 | 51.27389 | 3.85629 | 34314 ft | 409 kts | 302° |
| 2026-04-26 20:15 | 51.30441 | 3.77945 | 34311 ft | 410 kts | 301° |
| 2026-04-26 20:16 | 51.33506 | 3.70236 | 34307 ft | 410 kts | 301° |
| 2026-04-26 20:16 | 51.35960 | 3.62040 | 34312 ft | 409 kts | 287° |
| 2026-04-26 20:17 | 51.37493 | 3.53272 | 34315 ft | 409 kts | 285° |
| 2026-04-26 20:17 | 51.39014 | 3.44514 | 34323 ft | 404 kts | 285° |
| 2026-04-26 20:18 | 51.40511 | 3.35917 | 34328 ft | 407 kts | 285° |
| 2026-04-26 20:18 | 51.42045 | 3.27116 | 34327 ft | 412 kts | 285° |
| 2026-04-26 20:19 | 51.43578 | 3.18274 | 34334 ft | 412 kts | 285° |
| 2026-04-26 20:19 | 51.45097 | 3.09417 | 34331 ft | 412 kts | 285° |
| 2026-04-26 20:20 | 51.46573 | 3.00531 | 34335 ft | 412 kts | 285° |
| 2026-04-26 20:20 | 51.48025 | 2.91687 | 33994 ft | 408 kts | 284° |
| 2026-04-26 20:20 | 51.48744 | 2.87282 | 33671 ft | 409 kts | 284° |
| 2026-04-26 20:21 | 51.49467 | 2.82869 | 33237 ft | 408 kts | 284° |
| 2026-04-26 20:21 | 51.50181 | 2.78483 | 32639 ft | 405 kts | 284° |
| 2026-04-26 20:21 | 51.50892 | 2.74121 | 32013 ft | 403 kts | 284° |
| 2026-04-26 20:21 | 51.51605 | 2.69777 | 31423 ft | 401 kts | 284° |
| 2026-04-26 20:22 | 51.52299 | 2.65505 | 30871 ft | 398 kts | 284° |
| 2026-04-26 20:22 | 51.52988 | 2.61207 | 30297 ft | 396 kts | 284° |
| 2026-04-26 20:22 | 51.53679 | 2.56943 | 29641 ft | 394 kts | 284° |
| 2026-04-26 20:22 | 51.54366 | 2.52708 | 29030 ft | 391 kts | 284° |
| 2026-04-26 20:23 | 51.55137 | 2.48537 | 28461 ft | 388 kts | 288° |
| 2026-04-26 20:23 | 51.56048 | 2.44477 | 27924 ft | 385 kts | 289° |
| 2026-04-26 20:23 | 51.56972 | 2.40459 | 27354 ft | 382 kts | 289° |
| 2026-04-26 20:23 | 51.57889 | 2.36462 | 26791 ft | 380 kts | 289° |
| 2026-04-26 20:24 | 51.58802 | 2.32481 | 26245 ft | 377 kts | 289° |
| 2026-04-26 20:24 | 51.59704 | 2.28533 | 25710 ft | 375 kts | 289° |
| 2026-04-26 20:24 | 51.60596 | 2.24597 | 25187 ft | 373 kts | 289° |
| 2026-04-26 20:24 | 51.61483 | 2.20680 | 24642 ft | 372 kts | 289° |
| 2026-04-26 20:25 | 51.62369 | 2.16771 | 24095 ft | 371 kts | 289° |
| 2026-04-26 20:25 | 51.63034 | 2.14245 | 23719 ft | 371 kts | 296° |
| 2026-04-26 20:25 | 51.65125 | 2.09869 | 22943 ft | 371 kts | 317° |
| 2026-04-26 20:25 | 51.67272 | 2.07588 | 22401 ft | 370 kts | 329° |
| 2026-04-26 20:26 | 51.69559 | 2.05680 | 21983 ft | 372 kts | 330° |
| 2026-04-26 20:26 | 51.71865 | 2.03783 | 21680 ft | 371 kts | 330° |
| 2026-04-26 20:26 | 51.74160 | 2.01870 | 21412 ft | 370 kts | 330° |
| 2026-04-26 20:26 | 51.76438 | 1.99949 | 21117 ft | 369 kts | 329° |
| 2026-04-26 20:27 | 51.78696 | 1.98032 | 20680 ft | 363 kts | 329° |
| 2026-04-26 20:27 | 51.80915 | 1.96139 | 20221 ft | 358 kts | 329° |
| 2026-04-26 20:27 | 51.83103 | 1.94267 | 19785 ft | 354 kts | 329° |
| 2026-04-26 20:27 | 51.85265 | 1.92420 | 19329 ft | 350 kts | 330° |
| 2026-04-26 20:28 | 51.87410 | 1.90583 | 18886 ft | 347 kts | 329° |
| 2026-04-26 20:28 | 51.89484 | 1.88631 | 18428 ft | 342 kts | 321° |
| 2026-04-26 20:28 | 51.91191 | 1.85986 | 18034 ft | 347 kts | 308° |
| 2026-04-26 20:28 | 51.92721 | 1.83002 | 17799 ft | 349 kts | 307° |
| 2026-04-26 20:29 | 51.94255 | 1.79952 | 17655 ft | 349 kts | 307° |
| 2026-04-26 20:29 | 51.95796 | 1.76920 | 17519 ft | 348 kts | 308° |
| 2026-04-26 20:29 | 51.97343 | 1.73902 | 17409 ft | 347 kts | 308° |
| 2026-04-26 20:29 | 51.98885 | 1.70892 | 17296 ft | 347 kts | 308° |
| 2026-04-26 20:30 | 52.00428 | 1.67885 | 17180 ft | 346 kts | 308° |
| 2026-04-26 20:30 | 52.01966 | 1.64882 | 17072 ft | 345 kts | 308° |
| 2026-04-26 20:30 | 52.03501 | 1.61888 | 16971 ft | 345 kts | 308° |
| 2026-04-26 20:30 | 52.05041 | 1.58884 | 16849 ft | 346 kts | 308° |
| 2026-04-26 20:31 | 52.06576 | 1.55885 | 16735 ft | 345 kts | 308° |
| 2026-04-26 20:31 | 52.08111 | 1.52883 | 16622 ft | 345 kts | 308° |
| 2026-04-26 20:31 | 52.09653 | 1.49898 | 16507 ft | 344 kts | 308° |
| 2026-04-26 20:31 | 52.11188 | 1.46925 | 16395 ft | 343 kts | 308° |
| 2026-04-26 20:32 | 52.12712 | 1.43965 | 16282 ft | 340 kts | 308° |
| 2026-04-26 20:32 | 52.14225 | 1.41002 | 16171 ft | 340 kts | 308° |
| 2026-04-26 20:32 | 52.15644 | 1.37942 | 16054 ft | 338 kts | 299° |
| 2026-04-26 20:32 | 52.16480 | 1.34406 | 15937 ft | 334 kts | 280° |
| 2026-04-26 20:33 | 52.16815 | 1.30712 | 15832 ft | 333 kts | 276° |
| 2026-04-26 20:33 | 52.17077 | 1.26965 | 15722 ft | 333 kts | 275° |
| 2026-04-26 20:33 | 52.17341 | 1.23218 | 15615 ft | 332 kts | 276° |
| 2026-04-26 20:33 | 52.17618 | 1.19487 | 15499 ft | 332 kts | 276° |
| 2026-04-26 20:34 | 52.17901 | 1.15753 | 15389 ft | 331 kts | 276° |
| 2026-04-26 20:34 | 52.18187 | 1.12034 | 15280 ft | 331 kts | 276° |
| 2026-04-26 20:34 | 52.18477 | 1.08318 | 15171 ft | 330 kts | 276° |
| 2026-04-26 20:34 | 52.18771 | 1.04612 | 15056 ft | 329 kts | 276° |
| 2026-04-26 20:35 | 52.19064 | 1.00911 | 14955 ft | 329 kts | 276° |
| 2026-04-26 20:35 | 52.19350 | 0.97216 | 14854 ft | 328 kts | 276° |
| 2026-04-26 20:35 | 52.19633 | 0.93531 | 14749 ft | 327 kts | 276° |
| 2026-04-26 20:35 | 52.19915 | 0.89848 | 14650 ft | 327 kts | 276° |
| 2026-04-26 20:36 | 52.20193 | 0.86206 | 14549 ft | 327 kts | 276° |
| 2026-04-26 20:36 | 52.20472 | 0.82537 | 14441 ft | 326 kts | 276° |
| 2026-04-26 20:36 | 52.20747 | 0.78863 | 14341 ft | 326 kts | 275° |
| 2026-04-26 20:36 | 52.21013 | 0.75197 | 14306 ft | 326 kts | 275° |
| 2026-04-26 20:37 | 52.21280 | 0.71531 | 14317 ft | 326 kts | 275° |
| 2026-04-26 20:37 | 52.21550 | 0.67866 | 14326 ft | 326 kts | 275° |
| 2026-04-26 20:37 | 52.21819 | 0.64200 | 14312 ft | 320 kts | 275° |
| 2026-04-26 20:37 | 52.22077 | 0.60690 | 14161 ft | 304 kts | 275° |
| 2026-04-26 20:38 | 52.22323 | 0.57325 | 13783 ft | 296 kts | 275° |
| 2026-04-26 20:38 | 52.22565 | 0.54007 | 13194 ft | 295 kts | 275° |
| 2026-04-26 20:38 | 52.22807 | 0.50688 | 12646 ft | 293 kts | 276° |
| 2026-04-26 20:38 | 52.23044 | 0.47419 | 12231 ft | 287 kts | 276° |
| 2026-04-26 20:39 | 52.23278 | 0.44195 | 11868 ft | 285 kts | 276° |
| 2026-04-26 20:39 | 52.23430 | 0.42071 | 11638 ft | 284 kts | 276° |
| 2026-04-26 20:39 | 52.23736 | 0.37817 | 11142 ft | 281 kts | 276° |
| 2026-04-26 20:39 | 52.23962 | 0.34667 | 10779 ft | 279 kts | 276° |
| 2026-04-26 20:40 | 52.24186 | 0.31536 | 10420 ft | 277 kts | 276° |
| 2026-04-26 20:40 | 52.24406 | 0.28426 | 10040 ft | 275 kts | 276° |
| 2026-04-26 20:40 | 52.24620 | 0.25376 | 9656 ft | 273 kts | 276° |
| 2026-04-26 20:40 | 52.24838 | 0.22303 | 9282 ft | 271 kts | 276° |
| 2026-04-26 20:41 | 52.25054 | 0.19266 | 8929 ft | 268 kts | 276° |
| 2026-04-26 20:41 | 52.25263 | 0.16287 | 8722 ft | 260 kts | 276° |
| 2026-04-26 20:41 | 52.25469 | 0.13309 | 8595 ft | 270 kts | 276° |
| 2026-04-26 20:41 | 52.25674 | 0.10321 | 8465 ft | 259 kts | 276° |
| 2026-04-26 20:42 | 52.25871 | 0.07454 | 8331 ft | 258 kts | 276° |
| 2026-04-26 20:42 | 52.26078 | 0.04420 | 8293 ft | 273 kts | 276° |
| 2026-04-26 20:42 | 52.26291 | 0.01320 | 8310 ft | 275 kts | 276° |
| 2026-04-26 20:42 | 52.26502 | -0.01775 | 8312 ft | 275 kts | 276° |
| 2026-04-26 20:43 | 52.26716 | -0.04883 | 8318 ft | 275 kts | 277° |
| 2026-04-26 20:43 | 52.27116 | -0.07920 | 8321 ft | 273 kts | 285° |
| 2026-04-26 20:43 | 52.27643 | -0.10898 | 8323 ft | 274 kts | 285° |
| 2026-04-26 20:43 | 52.28113 | -0.13913 | 8326 ft | 274 kts | 278° |
| 2026-04-26 20:44 | 52.28124 | -0.17018 | 8327 ft | 274 kts | 259° |
| 2026-04-26 20:44 | 52.27435 | -0.19889 | 8332 ft | 273 kts | 237° |
| 2026-04-26 20:44 | 52.26099 | -0.22094 | 8330 ft | 277 kts | 214° |
| 2026-04-26 20:44 | 52.24321 | -0.23281 | 8325 ft | 279 kts | 191° |
| 2026-04-26 20:45 | 52.22381 | -0.23250 | 8329 ft | 282 kts | 169° |
| 2026-04-26 20:45 | 52.20490 | -0.22362 | 8335 ft | 283 kts | 163° |
| 2026-04-26 20:45 | 52.18623 | -0.21358 | 8338 ft | 283 kts | 163° |
| 2026-04-26 20:45 | 52.16745 | -0.20376 | 8334 ft | 283 kts | 164° |
| 2026-04-26 20:46 | 52.14862 | -0.19424 | 8327 ft | 283 kts | 166° |
| 2026-04-26 20:46 | 52.12925 | -0.19096 | 8317 ft | 280 kts | 187° |
| 2026-04-26 20:46 | 52.11085 | -0.20027 | 8316 ft | 277 kts | 211° |
| 2026-04-26 20:46 | 52.09631 | -0.22020 | 8319 ft | 275 kts | 232° |
| 2026-04-26 20:47 | 52.08553 | -0.24585 | 8329 ft | 275 kts | 238° |
| 2026-04-26 20:47 | 52.07881 | -0.26335 | 8330 ft | 276 kts | 238° |
| 2026-04-26 20:47 | 52.06508 | -0.29855 | 8325 ft | 275 kts | 238° |
| 2026-04-26 20:47 | 52.05486 | -0.32427 | 8324 ft | 275 kts | 238° |
| 2026-04-26 20:48 | 52.04441 | -0.35020 | 8321 ft | 274 kts | 237° |
| 2026-04-26 20:48 | 52.03388 | -0.37613 | 8215 ft | 275 kts | 237° |
| 2026-04-26 20:48 | 52.02336 | -0.40195 | 8036 ft | 275 kts | 237° |
| 2026-04-26 20:48 | 52.01280 | -0.42787 | 7812 ft | 275 kts | 237° |
| 2026-04-26 20:49 | 52.00228 | -0.45364 | 7570 ft | 274 kts | 237° |
| 2026-04-26 20:49 | 51.99175 | -0.47936 | 7336 ft | 272 kts | 237° |
| 2026-04-26 20:49 | 51.98129 | -0.50498 | 7088 ft | 271 kts | 237° |
| 2026-04-26 20:49 | 51.97108 | -0.52997 | 6841 ft | 261 kts | 237° |
| 2026-04-26 20:50 | 51.96119 | -0.55408 | 6586 ft | 251 kts | 237° |
| 2026-04-26 20:50 | 51.95167 | -0.57724 | 6319 ft | 243 kts | 237° |
| 2026-04-26 20:50 | 51.94244 | -0.59966 | 6050 ft | 238 kts | 236° |
| 2026-04-26 20:50 | 51.93331 | -0.62203 | 5798 ft | 237 kts | 237° |
| 2026-04-26 20:51 | 51.92427 | -0.64432 | 5562 ft | 234 kts | 237° |
| 2026-04-26 20:51 | 51.91563 | -0.66549 | 5348 ft | 221 kts | 236° |
| 2026-04-26 20:51 | 51.90752 | -0.68524 | 5246 ft | 201 kts | 236° |
| 2026-04-26 20:51 | 51.89981 | -0.70393 | 5132 ft | 199 kts | 236° |
| 2026-04-26 20:52 | 51.89211 | -0.72255 | 5020 ft | 199 kts | 236° |
| 2026-04-26 20:52 | 51.88437 | -0.74119 | 4995 ft | 200 kts | 235° |
| 2026-04-26 20:52 | 51.87504 | -0.75755 | 4949 ft | 199 kts | 211° |
| 2026-04-26 20:52 | 51.86176 | -0.76131 | 4796 ft | 198 kts | 167° |
| 2026-04-26 20:53 | 51.84895 | -0.75344 | 4652 ft | 197 kts | 157° |
| 2026-04-26 20:53 | 51.83611 | -0.74588 | 4485 ft | 196 kts | 160° |
| 2026-04-26 20:53 | 51.82376 | -0.73661 | 4296 ft | 195 kts | 141° |
| 2026-04-26 20:53 | 51.81649 | -0.71865 | 4113 ft | 194 kts | 104° |
| 2026-04-26 20:54 | 51.81696 | -0.69710 | 3984 ft | 192 kts | 77° |
| 2026-04-26 20:54 | 51.82101 | -0.67735 | 3852 ft | 178 kts | 72° |
| 2026-04-26 20:54 | 51.82432 | -0.65892 | 3692 ft | 166 kts | 73° |
| 2026-04-26 20:54 | 51.82742 | -0.64127 | 3573 ft | 165 kts | 73° |
| 2026-04-26 20:55 | 51.83052 | -0.62343 | 3441 ft | 165 kts | 73° |
| 2026-04-26 20:55 | 51.83361 | -0.60559 | 3308 ft | 165 kts | 73° |
| 2026-04-26 20:55 | 51.83670 | -0.58779 | 3122 ft | 164 kts | 73° |
| 2026-04-26 20:55 | 51.83976 | -0.57007 | 2919 ft | 163 kts | 73° |
| 2026-04-26 20:56 | 51.84280 | -0.55250 | 2701 ft | 163 kts | 73° |
| 2026-04-26 20:56 | 51.84585 | -0.53490 | 2477 ft | 162 kts | 73° |
| 2026-04-26 20:56 | 51.84890 | -0.51728 | 2260 ft | 162 kts | 73° |
| 2026-04-26 20:56 | 51.85192 | -0.49981 | 2042 ft | 161 kts | 74° |
| 2026-04-26 20:57 | 51.85492 | -0.48248 | 1823 ft | 157 kts | 74° |
| 2026-04-26 20:57 | 51.85780 | -0.46585 | 1644 ft | 151 kts | 75° |
| 2026-04-26 20:57 | 51.86043 | -0.45061 | 1446 ft | 134 kts | 75° |
| 2026-04-26 20:57 | 51.86296 | -0.43621 | 1249 ft | 132 kts | 76° |
| 2026-04-26 20:58 | 51.86547 | -0.42199 | 1052 ft | 130 kts | 77° |
| 2026-04-26 20:58 | 51.86788 | -0.40786 | 843 ft | 131 kts | 77° |
| 2026-04-26 20:58 | 51.87032 | -0.39366 | 686 ft | 131 kts | 77° |
| 2026-04-26 20:58 | 51.87275 | -0.37944 | 537 ft | 130 kts | 76° |
| 2026-04-26 20:59 | 51.87467 | -0.36808 | 529 ft | 63 kts | 74° |
| 2026-04-26 20:59 | 51.87565 | -0.36253 | 525 ft | 47 kts | 74° |
| 2026-04-26 20:59 | 51.87620 | -0.35959 | 521 ft | 16 kts | 60° |
| 2026-04-26 20:59 | 51.87706 | -0.35936 | 521 ft | 14 kts | 341° |
| 2026-04-26 21:00 | 51.87781 | -0.36031 | 522 ft | 14 kts | 284° |
| 2026-04-26 21:00 | 51.87774 | -0.36141 | 524 ft | 16 kts | 252° |
| 2026-04-26 21:00 | 51.87742 | -0.36319 | 523 ft | 17 kts | 255° |
| 2026-04-26 21:00 | 51.87696 | -0.36590 | 526 ft | 20 kts | 255° |
| 2026-04-26 21:01 | 51.87669 | -0.36750 | 528 ft | 9 kts | 253° |
| 2026-04-26 21:01 | 51.87670 | -0.36823 | 529 ft | 11 kts | 299° |
| 2026-04-26 21:01 | 51.87736 | -0.36883 | 524 ft | 12 kts | 343° |
| 2026-04-26 21:01 | 51.87813 | -0.36922 | 518 ft | 12 kts | 342° |
| 2026-04-26 21:02 | 51.87889 | -0.36964 | 518 ft | 11 kts | 341° |
| 2026-04-26 21:02 | 51.87952 | -0.36998 | 518 ft | 8 kts | 341° |
| 2026-04-26 21:02 | 51.88001 | -0.37054 | 518 ft | 9 kts | 305° |
| 2026-04-26 21:02 | 51.88042 | -0.37140 | 514 ft | 10 kts | 324° |
| 2026-04-26 21:03 | 51.88114 | -0.37184 | 516 ft | 12 kts | 343° |
| 2026-04-26 21:03 | 51.88195 | -0.37225 | 522 ft | 11 kts | 340° |
| 2026-04-26 21:03 | 51.88231 | -0.37322 | 522 ft | 12 kts | 260° |
| 2026-04-26 21:03 | 51.88207 | -0.37443 | 522 ft | 11 kts | 250° |
| 2026-04-26 21:04 | 51.88186 | -0.37501 | 522 ft | 6 kts | 186° |
| 2026-04-26 21:04 | 51.88152 | -0.37489 | 522 ft | 2 kts | 162° |
| 2026-04-26 21:04 | 51.88144 | -0.37484 | 522 ft | 0 kts | 162° |